El Paso International Airport
KELP : now visible

Airfield :











YOU CAN JOIN US ON...

 
LOGIN :

Register | Disclaimer

   EN    FR    IT 

 









Legend :    VFR   Marginal VFR   IFR   Intensive IFR   Very Intensive IFR
Visi :
Ceiling :
>= 8 km
>= 3000ft
5 to 8 km
1000 to 3000 ft
1500m to 5 km
500 to 1000 ft
800 to 1500m
200 to 500 ft
< 800m
< 200 ft
Symbols :   Thunderstorms  Fog  Heavy snow  Heavy precipitations  Wind > 20 kt






- Airport Elevation : 3959 ft
- IATA code : ELP


KELP - El Paso International

CURRENT METAR :
  • 110251Z 02006KT 10SM FEW140 BKN180 36/06 A2997 RMK AO2 SLP060 VIRGA N-NE T03560061 53005

EXPIRED METARs :
  • 110151Z 33012KT 10SM SCT130 BKN180 37/06 A2995 RMK AO2 SLP055 VIRGA NW AND DSNT N-NE AND W TCU DSNT E T03670056
  • 110051Z 31009KT 10SM SCT130 BKN180 39/06 A2995 RMK AO2 SLP053 VIRGA DSNT SE AND W-N TCU DSNT E T03890056

TAF KELP
Valid from the 11 at 00:00 until the 12 at 00:00 UTC


102338Z 1100/1124 23004KT P6SM SCT130 SCT180
FM110100 29012KT P6SM VCTS SCT110CB BKN150
FM110300 29006KT P6SM SCT140
FM111200 35007KT P6SM FEW250
KZAB FIR / North America



MET'MAP, your aeronautical weather chart ! - Copyright ORBIFLY December 2007 - Disclaimer

ORBIFLY MET'MAP TEAM :

Programming & Development : Alexandra Zaïnal
Concept & original design : Baudouin d'Aumeries
Assistance for programming : Marc-Olivier Méhu
Technical & hardware support : Manuel Goepfert

Contact : metmap@orbifly.com




SOURCES & CREDITS :

   NOAA       Earth
Advisory